createdAt,value
2017-12-29T00:00:44.086Z,99698.22
2017-12-29T00:03:10.511Z,99698.63
2017-12-29T00:05:36.317Z,99701.63
2017-12-29T00:08:02.075Z,99706.86
2017-12-29T00:10:27.823Z,99709.50
2017-12-29T00:12:53.579Z,99722.16
2017-12-29T00:15:20.314Z,99718.65
2017-12-29T00:17:46.058Z,99720.45
2017-12-29T00:20:11.810Z,99718.80
2017-12-29T00:22:37.620Z,99713.99
2017-12-29T00:25:03.370Z,99721.42
2017-12-29T00:27:29.351Z,99724.05
2017-12-29T00:29:55.103Z,99726.64
2017-12-29T00:32:20.859Z,99723.51
2017-12-29T00:34:46.622Z,99740.50
2017-12-29T00:37:12.378Z,99737.91
2017-12-29T00:39:38.935Z,99735.73
2017-12-29T00:42:04.678Z,99739.70
2017-12-29T00:44:30.421Z,99736.67
2017-12-29T00:46:56.298Z,99744.45
2017-12-29T00:49:22.059Z,99748.83
2017-12-29T00:51:47.821Z,99747.55
2017-12-29T00:54:13.579Z,99746.22
2017-12-29T00:56:39.330Z,99757.49
2017-12-29T00:59:05.090Z,99759.29
2017-12-29T01:01:30.829Z,99764.50
2017-12-29T01:03:56.566Z,99770.10
2017-12-29T01:06:22.306Z,99767.54
2017-12-29T01:08:48.063Z,99766.66
2017-12-29T01:11:13.834Z,99766.21
2017-12-29T01:13:39.584Z,99770.16
2017-12-29T01:16:05.339Z,99771.00
2017-12-29T01:18:31.090Z,99787.55
2017-12-29T01:20:56.850Z,99780.13
2017-12-29T01:23:22.615Z,99777.52
2017-12-29T01:25:48.371Z,99778.89
2017-12-29T01:28:14.114Z,99788.86
2017-12-29T01:30:39.895Z,99788.89
2017-12-29T01:33:05.647Z,99787.58
2017-12-29T01:35:31.734Z,99788.47
2017-12-29T01:37:57.946Z,99800.63
2017-12-29T01:40:24.260Z,99787.23
2017-12-29T01:42:50.007Z,99803.47
2017-12-29T01:45:15.896Z,99803.44
2017-12-29T01:47:54.258Z,99795.18
2017-12-29T01:50:20.032Z,99800.96
2017-12-29T01:52:45.763Z,99800.06
2017-12-29T01:55:11.511Z,99797.95
2017-12-29T01:57:37.272Z,99794.52
2017-12-29T02:00:03.035Z,99799.77
2017-12-29T02:02:28.778Z,99796.72
2017-12-29T02:04:54.537Z,99790.64
2017-12-29T02:07:20.298Z,99794.55
2017-12-29T02:09:46.040Z,99794.53
2017-12-29T02:12:11.816Z,99790.98
2017-12-29T02:14:37.575Z,99790.95
2017-12-29T02:17:03.335Z,99797.92
2017-12-29T02:19:29.090Z,99800.12
2017-12-29T02:21:54.864Z,99802.72
2017-12-29T02:24:20.611Z,99797.42
2017-12-29T02:26:46.379Z,99804.00
2017-12-29T02:29:12.130Z,99808.36
2017-12-29T02:31:37.915Z,99814.84
2017-12-29T02:34:03.651Z,99814.03
2017-12-29T02:36:29.391Z,99812.30
2017-12-29T02:38:55.131Z,99812.25
2017-12-29T02:41:20.871Z,99805.33
2017-12-29T02:43:46.638Z,99797.10
2017-12-29T02:46:12.387Z,99800.58
2017-12-29T02:48:38.151Z,99799.72
2017-12-29T02:51:03.894Z,99805.35
2017-12-29T02:53:29.639Z,99811.45
2017-12-29T02:55:55.391Z,99810.53
2017-12-29T02:58:21.154Z,99824.44
2017-12-29T03:00:46.920Z,99822.25
2017-12-29T03:03:12.674Z,99820.53
2017-12-29T03:05:38.417Z,99822.23
2017-12-29T03:08:04.162Z,99823.60
2017-12-29T03:10:29.906Z,99825.44
2017-12-29T03:12:55.638Z,99832.08
2017-12-29T03:15:21.385Z,99821.70
2017-12-29T03:17:47.123Z,99825.28
2017-12-29T03:20:12.874Z,99837.48
2017-12-29T03:22:38.627Z,99840.09
2017-12-29T03:25:04.378Z,99837.48
2017-12-29T03:27:30.142Z,99839.73
2017-12-29T03:29:55.897Z,99842.95
2017-12-29T03:32:21.646Z,99859.06
2017-12-29T03:34:47.416Z,99861.72
2017-12-29T03:37:13.187Z,99870.87
2017-12-29T03:39:38.947Z,99870.55
2017-12-29T03:42:04.703Z,99861.98
2017-12-29T03:44:30.458Z,99870.68
2017-12-29T03:46:56.219Z,99878.91
2017-12-29T03:49:21.974Z,99875.00
2017-12-29T03:51:47.738Z,99878.97
2017-12-29T03:54:13.474Z,99869.45
2017-12-29T03:56:39.226Z,99881.22
2017-12-29T03:59:04.962Z,99886.47
2017-12-29T04:01:30.722Z,99881.32
2017-12-29T04:03:56.468Z,99895.67
2017-12-29T04:06:22.225Z,99898.73
2017-12-29T04:08:47.978Z,99901.75
2017-12-29T04:11:13.775Z,99906.10
2017-12-29T04:13:39.511Z,99912.65
2017-12-29T04:16:05.274Z,99913.92
2017-12-29T04:18:31.022Z,99924.77
2017-12-29T04:20:56.785Z,99917.75
2017-12-29T04:23:22.523Z,99923.89
2017-12-29T04:25:48.259Z,99916.06
2017-12-29T04:28:14.006Z,99919.98
2017-12-29T04:30:39.750Z,99924.35
2017-12-29T04:33:05.519Z,99930.41
2017-12-29T04:35:31.257Z,99929.05
2017-12-29T04:37:57.002Z,99939.08
2017-12-29T04:40:22.735Z,99939.69
2017-12-29T04:42:48.483Z,99930.70
2017-12-29T04:45:14.236Z,99928.10
2017-12-29T04:47:39.994Z,99927.28
2017-12-29T04:50:05.739Z,99926.86
2017-12-29T04:52:31.494Z,99923.80
2017-12-29T04:54:57.254Z,99928.98
2017-12-29T04:57:23.066Z,99928.59
2017-12-29T04:59:48.774Z,99927.66
2017-12-29T05:02:14.538Z,99928.95
2017-12-29T05:04:40.274Z,99931.94
2017-12-29T05:07:06.023Z,99933.27
2017-12-29T05:09:31.782Z,99931.98
2017-12-29T05:11:59.426Z,99933.70
2017-12-29T05:14:25.179Z,99931.08
2017-12-29T05:16:50.927Z,99930.18
2017-12-29T05:19:16.691Z,99934.93
2017-12-29T05:21:42.443Z,99934.08
2017-12-29T05:24:08.208Z,99938.86
2017-12-29T05:26:33.963Z,99939.73
2017-12-29T05:28:59.728Z,99943.62
2017-12-29T05:31:25.466Z,99948.86
2017-12-29T05:33:51.222Z,99954.52
2017-12-29T05:36:16.978Z,99950.58
2017-12-29T05:38:42.743Z,99951.02
2017-12-29T05:41:08.498Z,99951.03
2017-12-29T05:43:34.266Z,99951.03
2017-12-29T05:46:00.022Z,99957.53
2017-12-29T05:48:25.811Z,99950.12
2017-12-29T05:50:51.554Z,99965.33
2017-12-29T05:53:17.295Z,99959.61
2017-12-29T05:55:43.063Z,99963.08
2017-12-29T05:58:08.807Z,99970.41
2017-12-29T06:00:34.592Z,99970.34
2017-12-29T06:03:00.351Z,99981.58
2017-12-29T06:05:26.114Z,99983.75
2017-12-29T06:07:51.863Z,99980.70
2017-12-29T06:10:17.631Z,99982.81
2017-12-29T06:12:43.393Z,99984.11
2017-12-29T06:15:09.142Z,99978.46
2017-12-29T06:17:34.898Z,99987.59
2017-12-29T06:20:00.653Z,99990.59
2017-12-29T06:22:26.398Z,99994.91
2017-12-29T06:24:52.154Z,99996.61
2017-12-29T06:27:17.915Z,99994.84
2017-12-29T06:29:43.674Z,99984.35
2017-12-29T06:32:09.415Z,99988.27
2017-12-29T06:34:35.170Z,99989.62
2017-12-29T06:37:00.923Z,100003.09
2017-12-29T06:39:26.678Z,100002.20
2017-12-29T06:41:52.448Z,100008.73
2017-12-29T06:44:18.202Z,100004.84
2017-12-29T06:46:43.970Z,100011.38
2017-12-29T06:49:09.719Z,100016.16
2017-12-29T06:51:35.491Z,100024.84
2017-12-29T06:54:01.247Z,100023.13
2017-12-29T06:56:27.011Z,100030.09
2017-12-29T06:58:52.764Z,100021.41
2017-12-29T07:01:18.528Z,100028.82
2017-12-29T07:03:44.278Z,100023.17
2017-12-29T07:06:10.040Z,100027.94
2017-12-29T07:08:35.790Z,100031.44
2017-12-29T07:11:01.551Z,100035.31
2017-12-29T07:13:27.306Z,100031.38
2017-12-29T07:15:53.077Z,100048.31
2017-12-29T07:18:18.834Z,100043.52
2017-12-29T07:20:44.578Z,100039.16
2017-12-29T07:23:10.335Z,100047.42
2017-12-29T07:25:36.091Z,100056.13
2017-12-29T07:28:01.875Z,100060.04
2017-12-29T07:30:27.618Z,100073.95
2017-12-29T07:32:53.375Z,100065.23
2017-12-29T07:35:19.134Z,100076.97
2017-12-29T07:37:44.906Z,100083.94
2017-12-29T07:40:10.658Z,100087.00
2017-12-29T07:42:36.439Z,100085.20
2017-12-29T07:45:02.210Z,100090.86
2017-12-29T07:47:27.965Z,100085.68
2017-12-29T07:49:53.724Z,100090.89
2017-12-29T07:52:19.487Z,100096.97
2017-12-29T07:54:45.238Z,100110.06
2017-12-29T07:57:10.994Z,100127.01
2017-12-29T07:59:36.764Z,100129.20
2017-12-29T08:02:02.522Z,100133.55
2017-12-29T08:04:28.262Z,100133.11
2017-12-29T08:06:54.012Z,100127.46
2017-12-29T08:09:19.751Z,100139.67
2017-12-29T08:11:45.510Z,100142.33
2017-12-29T08:14:11.275Z,100141.87
2017-12-29T08:16:37.023Z,100144.87
2017-12-29T08:19:02.804Z,100141.84
2017-12-29T08:21:28.542Z,100138.34
2017-12-29T08:23:54.298Z,100144.93
2017-12-29T08:26:20.050Z,100147.09
2017-12-29T08:28:45.831Z,100147.12
2017-12-29T08:31:11.578Z,100148.45
2017-12-29T08:33:37.337Z,100161.53
2017-12-29T08:36:03.087Z,100159.77
2017-12-29T08:38:28.863Z,100168.44
2017-12-29T08:40:54.674Z,100168.39
2017-12-29T08:43:20.422Z,100179.30
2017-12-29T08:45:46.199Z,100177.13
2017-12-29T08:48:11.966Z,100183.67
2017-12-29T08:50:37.712Z,100184.53
2017-12-29T08:53:03.480Z,100191.49
2017-12-29T08:55:29.218Z,100184.98
2017-12-29T08:57:54.958Z,100181.91
2017-12-29T09:00:20.716Z,100194.55
2017-12-29T09:02:46.470Z,100183.70
2017-12-29T09:05:12.222Z,100197.63
2017-12-29T09:07:37.966Z,100184.16
2017-12-29T09:10:03.710Z,100187.20
2017-12-29T09:12:29.463Z,100179.85
2017-12-29T09:14:55.218Z,100182.02
2017-12-29T09:17:20.962Z,100189.84
2017-12-29T09:19:46.739Z,100192.52
2017-12-29T09:22:12.491Z,100190.39
2017-12-29T09:24:38.271Z,100196.09
2017-12-29T09:27:04.019Z,100182.66
2017-12-29T09:29:29.798Z,100172.23
2017-12-29T09:31:55.542Z,100169.14
2017-12-29T09:34:21.283Z,100167.34
2017-12-29T09:36:47.033Z,100169.47
2017-12-29T09:39:12.800Z,100170.73
2017-12-29T09:41:38.567Z,100160.28
2017-12-29T09:44:04.311Z,100160.67
2017-12-29T09:46:30.074Z,100158.48
2017-12-29T09:48:55.831Z,100158.44
2017-12-29T09:51:21.586Z,100153.27
2017-12-29T09:53:47.334Z,100151.92
2017-12-29T09:56:13.104Z,100153.20
2017-12-29T09:58:38.851Z,100165.37
2017-12-29T10:01:04.610Z,100171.86
2017-12-29T10:03:30.482Z,100176.58
2017-12-29T10:05:56.611Z,100174.45
2017-12-29T10:08:22.363Z,100173.16
2017-12-29T10:10:48.256Z,100176.17
2017-12-29T10:13:14.027Z,100167.04
2017-12-29T10:15:39.778Z,100167.89
2017-12-29T10:18:05.809Z,100167.03
2017-12-29T10:20:31.559Z,100175.75
2017-12-29T10:22:57.426Z,100167.05
2017-12-29T10:25:23.226Z,100170.10
2017-12-29T10:27:49.294Z,100168.78
2017-12-29T10:30:15.062Z,100168.74
2017-12-29T10:32:40.843Z,100167.81
2017-12-29T10:35:06.600Z,100162.93
2017-12-29T10:37:32.878Z,100161.28
2017-12-29T10:39:58.864Z,100163.42
2017-12-29T10:42:24.635Z,100146.38
2017-12-29T10:44:50.393Z,100152.75
2017-12-29T10:47:16.298Z,100144.61
2017-12-29T10:49:42.046Z,100142.05
2017-12-29T10:52:07.782Z,100146.39
2017-12-29T10:54:33.704Z,100145.97
2017-12-29T10:56:59.463Z,100150.16
2017-12-29T10:59:25.237Z,100143.09
2017-12-29T11:01:50.991Z,100143.94
2017-12-29T11:04:16.755Z,100147.84
2017-12-29T11:06:42.512Z,100140.27
2017-12-29T11:09:08.283Z,100139.33
2017-12-29T11:11:34.023Z,100144.70
2017-12-29T11:13:59.782Z,100142.95
2017-12-29T11:16:25.542Z,100144.22
2017-12-29T11:18:51.315Z,100146.47
2017-12-29T11:21:17.080Z,100161.28
2017-12-29T11:23:42.954Z,100152.58
2017-12-29T11:26:08.718Z,100153.74
2017-12-29T11:28:34.526Z,100157.09
2017-12-29T11:31:00.284Z,100155.84
2017-12-29T11:33:26.038Z,100153.81
2017-12-29T11:35:51.799Z,100158.65
2017-12-29T11:38:17.538Z,100149.51
2017-12-29T11:40:43.303Z,100143.91
2017-12-29T11:43:09.055Z,100139.97
2017-12-29T11:45:34.831Z,100139.63
2017-12-29T11:48:00.574Z,100136.61
2017-12-29T11:50:26.339Z,100130.03
2017-12-29T11:52:52.094Z,100123.86
2017-12-29T11:55:17.867Z,100127.31
2017-12-29T11:57:43.610Z,100111.16
2017-12-29T12:00:09.376Z,100112.36
2017-12-29T12:02:35.118Z,100106.28
2017-12-29T12:05:00.867Z,100107.55
2017-12-29T12:07:26.627Z,100109.36
2017-12-29T12:09:52.401Z,100105.83
2017-12-29T12:12:18.947Z,100105.80
2017-12-29T12:14:44.717Z,100101.81
2017-12-29T12:17:10.477Z,100102.29
2017-12-29T12:19:36.234Z,100104.39
2017-12-29T12:22:01.999Z,100107.50
2017-12-29T12:24:27.742Z,100099.62
2017-12-29T12:26:53.496Z,100099.28
2017-12-29T12:29:19.262Z,100105.83
2017-12-29T12:31:45.027Z,100093.59
2017-12-29T12:34:10.774Z,100093.63
2017-12-29T12:36:36.530Z,100099.75
2017-12-29T12:39:02.299Z,100095.08
2017-12-29T12:41:28.059Z,100096.91
2017-12-29T12:43:53.811Z,100102.48
2017-12-29T12:46:19.587Z,100099.40
2017-12-29T12:48:45.344Z,100099.41
2017-12-29T12:51:11.383Z,100094.59
2017-12-29T12:53:37.126Z,100100.23
2017-12-29T12:56:02.884Z,100090.25
2017-12-29T12:58:28.634Z,100085.78
2017-12-29T13:00:54.375Z,100084.06
2017-12-29T13:03:20.139Z,100075.83
2017-12-29T13:05:45.887Z,100075.38
2017-12-29T13:08:11.654Z,100074.48
2017-12-29T13:10:37.394Z,100079.25
2017-12-29T13:13:03.150Z,100077.17
2017-12-29T13:15:28.906Z,100081.09
2017-12-29T13:17:54.671Z,100082.47
2017-12-29T13:20:20.426Z,100080.27
2017-12-29T13:22:46.187Z,100077.18
2017-12-29T13:25:11.942Z,100081.96
2017-12-29T13:27:37.728Z,100076.84
2017-12-29T13:30:03.506Z,100069.62
2017-12-29T13:32:29.273Z,100079.72
2017-12-29T13:34:55.028Z,100085.45
2017-12-29T13:37:20.803Z,100075.96
2017-12-29T13:39:46.547Z,100086.84
2017-12-29T13:42:12.332Z,100077.27
2017-12-29T13:44:38.082Z,100079.53
2017-12-29T13:47:03.850Z,100075.65
2017-12-29T13:49:29.604Z,100081.70
2017-12-29T13:51:55.391Z,100076.94
2017-12-29T13:54:21.166Z,100083.97
2017-12-29T13:56:46.915Z,100079.20
2017-12-29T13:59:12.667Z,100073.14
2017-12-29T14:01:38.410Z,100077.97
2017-12-29T14:04:04.171Z,100088.53
2017-12-29T14:06:29.899Z,100085.05
2017-12-29T14:08:55.663Z,100091.61
2017-12-29T14:11:21.406Z,100089.86
2017-12-29T14:13:47.179Z,100089.01
2017-12-29T14:16:12.923Z,100090.33
2017-12-29T14:18:38.691Z,100094.81
2017-12-29T14:21:04.431Z,100091.80
2017-12-29T14:23:30.206Z,100097.03
2017-12-29T14:25:55.968Z,100091.80
2017-12-29T14:28:21.723Z,100088.37
2017-12-29T14:30:47.488Z,100091.42
2017-12-29T14:33:13.246Z,100085.37
2017-12-29T14:35:39.010Z,100083.59
2017-12-29T14:38:04.770Z,100083.59
2017-12-29T14:40:30.546Z,100081.01
2017-12-29T14:42:56.299Z,100078.00
2017-12-29T14:45:22.074Z,100077.58
2017-12-29T14:47:47.823Z,100069.86
2017-12-29T14:50:13.582Z,100072.94
2017-12-29T14:52:39.339Z,100077.30
2017-12-29T14:55:05.105Z,100070.78
2017-12-29T14:57:30.856Z,100072.13
2017-12-29T14:59:56.622Z,100066.09
2017-12-29T15:02:22.378Z,100069.59
2017-12-29T15:04:48.174Z,100067.39
2017-12-29T15:07:13.918Z,100068.28
2017-12-29T15:09:39.671Z,100062.20
2017-12-29T15:12:05.434Z,100055.72
2017-12-29T15:14:31.191Z,100052.69
2017-12-29T15:16:56.940Z,100052.30
2017-12-29T15:19:22.690Z,100051.00
2017-12-29T15:21:48.468Z,100052.77
2017-12-29T15:24:14.210Z,100049.70
2017-12-29T15:26:39.987Z,100044.47
2017-12-29T15:29:05.742Z,100042.71
2017-12-29T15:31:31.507Z,100037.09
2017-12-29T15:33:57.259Z,100029.28
2017-12-29T15:36:23.038Z,100032.31
2017-12-29T15:38:48.786Z,100034.97
2017-12-29T15:41:21.628Z,100034.06
2017-12-29T15:43:47.427Z,100034.11
2017-12-29T15:46:13.179Z,100022.84
2017-12-29T15:48:39.001Z,100025.08
2017-12-29T15:51:04.724Z,100027.68
2017-12-29T15:53:30.482Z,100030.29
2017-12-29T15:55:56.235Z,100026.38
2017-12-29T15:58:22.000Z,100013.84
2017-12-29T16:00:47.755Z,100012.97
2017-12-29T16:03:13.501Z,100020.37
2017-12-29T16:05:39.258Z,100015.61
2017-12-29T16:08:05.015Z,100015.64
2017-12-29T16:10:30.775Z,100013.91
2017-12-29T16:12:56.551Z,100007.42
2017-12-29T16:15:22.295Z,100000.45
2017-12-29T16:17:48.055Z,99999.61
2017-12-29T16:20:13.808Z,99987.89
2017-12-29T16:22:39.567Z,99986.61
2017-12-29T16:25:05.326Z,99987.45
2017-12-29T16:27:31.083Z,99980.98
2017-12-29T16:29:56.835Z,99978.80
2017-12-29T16:32:22.574Z,99978.36
2017-12-29T16:34:48.338Z,99974.46
2017-12-29T16:37:14.123Z,99968.81
2017-12-29T16:39:39.982Z,99973.18
2017-12-29T16:42:05.731Z,99965.39
2017-12-29T16:44:31.494Z,99956.28
2017-12-29T16:46:57.254Z,99964.50
2017-12-29T16:49:23.026Z,99954.48
2017-12-29T16:51:48.778Z,99952.75
2017-12-29T16:54:14.526Z,99949.28
2017-12-29T16:56:40.294Z,99952.31
2017-12-29T16:59:06.043Z,99947.52
2017-12-29T17:01:31.790Z,99945.36
2017-12-29T17:03:57.543Z,99948.37
2017-12-29T17:06:23.304Z,99958.36
2017-12-29T17:08:49.052Z,99959.23
2017-12-29T17:11:14.835Z,99947.92
2017-12-29T17:13:40.571Z,99954.02
2017-12-29T17:16:06.402Z,99951.87
2017-12-29T17:18:32.143Z,99947.52
2017-12-29T17:20:57.895Z,99954.89
2017-12-29T17:23:23.638Z,99952.28
2017-12-29T17:25:49.399Z,99954.45
2017-12-29T17:28:15.146Z,99949.23
2017-12-29T17:30:40.920Z,99945.34
2017-12-29T17:33:06.675Z,99942.74
2017-12-29T17:35:32.435Z,99938.81
2017-12-29T17:37:58.195Z,99926.69
2017-12-29T17:40:23.942Z,99923.61
2017-12-29T17:42:49.702Z,99934.45
2017-12-29T17:45:15.459Z,99931.44
2017-12-29T17:47:41.243Z,99934.46
2017-12-29T17:50:07.002Z,99936.20
2017-12-29T17:52:32.774Z,99938.36
2017-12-29T17:54:58.544Z,99934.03
2017-12-29T17:57:24.318Z,99934.41
2017-12-29T17:59:50.066Z,99933.96
2017-12-29T18:02:15.842Z,99928.75
2017-12-29T18:04:41.590Z,99932.66
2017-12-29T18:07:07.356Z,99933.98
2017-12-29T18:09:33.118Z,99930.91
2017-12-29T18:11:58.886Z,99927.44
2017-12-29T18:14:24.654Z,99925.23
2017-12-29T18:16:50.414Z,99928.73
2017-12-29T18:19:16.167Z,99934.39
2017-12-29T18:21:41.924Z,99928.27
2017-12-29T18:24:07.691Z,99931.28
2017-12-29T18:26:33.434Z,99929.56
2017-12-29T18:28:59.199Z,99932.13
2017-12-29T18:31:24.947Z,99931.23
2017-12-29T18:33:50.706Z,99923.44
2017-12-29T18:36:16.453Z,99929.50
2017-12-29T18:38:42.203Z,99924.72
2017-12-29T18:41:07.954Z,99921.64
2017-12-29T18:43:33.739Z,99927.33
2017-12-29T18:45:59.503Z,99922.11
2017-12-29T18:48:25.266Z,99919.05
2017-12-29T18:50:51.034Z,99921.65
2017-12-29T18:53:16.796Z,99909.05
2017-12-29T18:55:42.546Z,99915.56
2017-12-29T18:58:08.295Z,99917.30
2017-12-29T19:00:34.059Z,99912.97
2017-12-29T19:02:59.807Z,99911.66
2017-12-29T19:05:25.566Z,99911.66
2017-12-29T19:07:51.322Z,99916.04
2017-12-29T19:10:17.095Z,99912.08
2017-12-29T19:12:42.847Z,99907.78
2017-12-29T19:15:08.611Z,99911.27
2017-12-29T19:17:34.368Z,99913.01
2017-12-29T19:20:00.131Z,99901.70
2017-12-29T19:22:25.886Z,99902.95
2017-12-29T19:24:51.650Z,99896.03
2017-12-29T19:27:17.397Z,99899.55
2017-12-29T19:29:43.158Z,99901.25
2017-12-29T19:32:08.912Z,99902.57
2017-12-29T19:34:34.674Z,99901.66
2017-12-29T19:37:00.482Z,99897.33
2017-12-29T19:39:26.190Z,99887.36
2017-12-29T19:41:51.948Z,99885.61
2017-12-29T19:44:17.690Z,99885.61
2017-12-29T19:46:43.451Z,99880.81
2017-12-29T19:49:09.234Z,99875.59
2017-12-29T19:51:34.970Z,99883.81
2017-12-29T19:54:00.722Z,99886.42
2017-12-29T19:56:26.470Z,99883.39
2017-12-29T19:58:52.222Z,99877.30
2017-12-29T20:01:17.968Z,99872.08
2017-12-29T20:03:43.775Z,99874.27
2017-12-29T20:06:09.495Z,99871.22
2017-12-29T20:08:35.267Z,99869.50
2017-12-29T20:11:01.027Z,99878.57
2017-12-29T20:13:26.812Z,99880.76
2017-12-29T20:15:52.558Z,99879.91
2017-12-29T20:18:18.326Z,99875.12
2017-12-29T20:20:44.080Z,99885.09
2017-12-29T20:23:09.841Z,99881.61
2017-12-29T20:25:35.600Z,99876.41
2017-12-29T20:28:01.362Z,99870.79
2017-12-29T20:30:27.114Z,99875.13
2017-12-29T20:32:52.867Z,99873.78
2017-12-29T20:35:18.614Z,99871.57
2017-12-29T20:37:44.395Z,99873.36
2017-12-29T20:40:10.146Z,99867.36
2017-12-29T20:42:35.903Z,99869.55
2017-12-29T20:45:01.663Z,99862.61
2017-12-29T20:47:27.432Z,99862.54
2017-12-29T20:49:53.187Z,99861.23
2017-12-29T20:52:18.931Z,99850.42
2017-12-29T20:54:44.678Z,99862.57
2017-12-29T20:57:10.441Z,99854.34
2017-12-29T20:59:36.194Z,99846.53
2017-12-29T21:02:01.942Z,99849.16
2017-12-29T21:04:27.752Z,99854.36
2017-12-29T21:06:53.451Z,99850.45
2017-12-29T21:09:19.194Z,99846.53
2017-12-29T21:11:44.954Z,99845.62
2017-12-29T21:14:10.723Z,99840.86
2017-12-29T21:16:36.462Z,99841.70
2017-12-29T21:19:02.203Z,99845.58
2017-12-29T21:21:27.958Z,99842.11
2017-12-29T21:23:53.703Z,99843.38
2017-12-29T21:26:19.466Z,99838.19
2017-12-29T21:28:45.218Z,99839.07
2017-12-29T21:31:10.966Z,99844.71
2017-12-29T21:33:36.738Z,99846.87
2017-12-29T21:36:02.506Z,99837.36
2017-12-29T21:38:28.268Z,99839.52
2017-12-29T21:40:54.029Z,99832.56
2017-12-29T21:43:19.786Z,99829.11
2017-12-29T21:45:45.551Z,99832.56
2017-12-29T21:48:11.299Z,99825.64
2017-12-29T21:50:37.080Z,99826.05
2017-12-29T21:53:02.826Z,99826.51
2017-12-29T21:55:28.583Z,99821.75
2017-12-29T21:57:54.354Z,99823.05
2017-12-29T22:00:20.106Z,99824.78
2017-12-29T22:02:45.870Z,99817.47
2017-12-29T22:05:11.623Z,99814.36
2017-12-29T22:07:37.387Z,99816.13
2017-12-29T22:10:03.132Z,99810.08
2017-12-29T22:12:28.903Z,99811.38
2017-12-29T22:14:54.650Z,99812.66
2017-12-29T22:17:20.411Z,99813.98
2017-12-29T22:19:46.182Z,99817.92
2017-12-29T22:22:11.943Z,99813.59
2017-12-29T22:24:37.699Z,99810.54
2017-12-29T22:27:03.474Z,99817.05
2017-12-29T22:29:29.222Z,99811.88
2017-12-29T22:31:54.990Z,99815.84
2017-12-29T22:34:20.750Z,99813.23
2017-12-29T22:36:46.589Z,99808.46
2017-12-29T22:39:12.358Z,99809.34
2017-12-29T22:41:38.193Z,99799.35
2017-12-29T22:44:04.033Z,99804.52
2017-12-29T22:46:29.798Z,99814.11
2017-12-29T22:48:55.567Z,99814.97
2017-12-29T22:51:21.331Z,99819.28
2017-12-29T22:53:48.034Z,99820.53
2017-12-29T22:56:14.255Z,99813.09
2017-12-29T22:58:40.021Z,99824.81
2017-12-29T23:01:05.970Z,99812.64
2017-12-29T23:03:32.947Z,99815.23
2017-12-29T23:05:58.923Z,99810.05
2017-12-29T23:08:24.694Z,99816.97
2017-12-29T23:10:50.463Z,99806.95
2017-12-29T23:13:16.219Z,99811.30
2017-12-29T23:15:41.979Z,99805.63
2017-12-29T23:18:07.864Z,99813.44
2017-12-29T23:20:33.606Z,99806.05
2017-12-29T23:22:59.362Z,99799.56
2017-12-29T23:25:25.135Z,99794.75
2017-12-29T23:27:50.932Z,99789.97
2017-12-29T23:30:16.687Z,99797.30
2017-12-29T23:32:42.434Z,99799.05
2017-12-29T23:35:08.210Z,99795.14
2017-12-29T23:37:33.962Z,99790.38
2017-12-29T23:39:59.775Z,99799.06
2017-12-29T23:42:25.517Z,99788.20
2017-12-29T23:44:51.286Z,99790.39
2017-12-29T23:47:17.070Z,99792.12
2017-12-29T23:49:42.812Z,99796.47
2017-12-29T23:52:08.584Z,99798.60
2017-12-29T23:54:34.331Z,99795.56
2017-12-29T23:57:00.082Z,99803.39
2017-12-29T23:59:25.827Z,99800.32
